createdAt,value
2023-01-20T00:14:12.494Z,0.59
2023-01-20T00:17:59.036Z,0.12
2023-01-20T00:22:05.808Z,-0.10
2023-01-20T00:26:02.669Z,-0.29
2023-01-20T00:29:44.438Z,-0.37
2023-01-20T00:33:37.952Z,-0.46
2023-01-20T00:37:16.012Z,-0.58
2023-01-20T00:41:12.366Z,-0.64
2023-01-20T00:45:01.997Z,-0.66
2023-01-20T00:48:56.622Z,-0.64
2023-01-20T00:52:58.988Z,-0.64
2023-01-20T00:56:54.661Z,-0.66
2023-01-20T01:01:04.799Z,-0.61
2023-01-20T01:05:00.216Z,-0.53
2023-01-20T01:09:20.396Z,-0.50
2023-01-20T01:12:51.004Z,-0.55
2023-01-20T01:16:46.458Z,-0.57
2023-01-20T01:20:38.412Z,-0.60
2023-01-20T01:24:25.225Z,-0.58
2023-01-20T01:28:14.645Z,-0.56
2023-01-20T01:32:06.218Z,-0.50
2023-01-20T01:36:09.805Z,-0.46
2023-01-20T01:40:09.898Z,-0.41
2023-01-20T01:44:22.635Z,-0.33
2023-01-20T01:48:18.802Z,-0.33
2023-01-20T01:52:11.708Z,-0.35
2023-01-20T01:56:14.673Z,-0.35
2023-01-20T02:00:18.570Z,-0.37
2023-01-20T02:04:08.838Z,-0.41
2023-01-20T02:08:12.426Z,-0.44
2023-01-20T02:11:45.495Z,-0.43
2023-01-20T02:15:54.275Z,-0.42
2023-01-20T02:20:19.143Z,-0.44
2023-01-20T02:29:09.001Z,-0.40
2023-01-20T02:33:25.059Z,-0.41
2023-01-20T02:37:33.357Z,-0.39
2023-01-20T02:41:51.482Z,-0.36
2023-01-20T02:46:10.354Z,-0.39
2023-01-20T02:50:10.060Z,-0.40
2023-01-20T02:54:13.739Z,-0.47
2023-01-20T02:58:09.111Z,-0.53
2023-01-20T03:02:31.350Z,-0.62
2023-01-20T03:06:38.148Z,-0.55
2023-01-20T03:10:35.849Z,-0.44
2023-01-20T03:14:47.339Z,-0.40
2023-01-20T03:18:36.355Z,-0.32
2023-01-20T03:22:12.657Z,-0.27
2023-01-20T03:26:08.187Z,-0.20
2023-01-20T03:30:11.806Z,-0.18
2023-01-20T03:34:14.333Z,-0.14
2023-01-20T03:43:05.829Z,-0.32
2023-01-20T03:47:08.737Z,-0.32
2023-01-20T03:51:15.550Z,-0.31
2023-01-20T03:55:11.816Z,-0.37
2023-01-20T03:59:14.301Z,-0.31
2023-01-20T04:03:17.913Z,-0.28
2023-01-20T04:07:14.616Z,-0.27
2023-01-20T04:11:20.350Z,-0.33
2023-01-20T04:15:09.333Z,-0.39
2023-01-20T04:19:03.195Z,-0.37
2023-01-20T04:23:15.853Z,-0.28
2023-01-20T04:27:04.333Z,-0.20
2023-01-20T04:30:59.752Z,-0.15
2023-01-20T04:34:46.185Z,-0.18
2023-01-20T04:38:36.033Z,-0.30
2023-01-20T04:42:39.661Z,-0.46
2023-01-20T04:46:43.364Z,-0.49
2023-01-20T04:50:47.718Z,-0.40
2023-01-20T04:54:51.556Z,-0.37
2023-01-20T04:58:40.638Z,-0.35
2023-01-20T05:02:43.038Z,-0.35
2023-01-20T05:06:53.330Z,-0.30
2023-01-20T05:10:49.876Z,-0.27
2023-01-20T05:14:48.860Z,-0.37
2023-01-20T05:18:45.503Z,-0.35
2023-01-20T05:22:32.037Z,-0.30
2023-01-20T05:26:36.138Z,-0.28
2023-01-20T05:30:22.251Z,-0.14
2023-01-20T05:34:07.040Z,-0.11
2023-01-20T05:37:53.721Z,-0.13
2023-01-20T05:41:51.978Z,-0.13
2023-01-20T05:45:47.972Z,-0.15
2023-01-20T05:49:41.065Z,-0.19
2023-01-20T05:53:30.505Z,-0.23
2023-01-20T05:57:18.244Z,-0.32
2023-01-20T06:01:04.856Z,-0.35
2023-01-20T06:05:08.738Z,-0.35
2023-01-20T06:09:13.445Z,-0.30
2023-01-20T06:13:21.298Z,-0.34
2023-01-20T06:17:10.611Z,-0.29
2023-01-20T06:21:14.493Z,-0.28
2023-01-20T06:25:06.682Z,-0.25
2023-01-20T06:29:01.759Z,-0.29
2023-01-20T06:37:46.627Z,-0.45
2023-01-20T06:41:41.184Z,-0.41
2023-01-20T06:45:17.042Z,-0.42
2023-01-20T06:49:03.015Z,-0.36
2023-01-20T06:52:11.127Z,-0.30
2023-01-20T06:55:56.070Z,-0.27
2023-01-20T06:59:38.486Z,-0.34
2023-01-20T07:03:39.277Z,-0.34
2023-01-20T07:07:35.871Z,-0.27
2023-01-20T07:11:28.663Z,-0.25
2023-01-20T07:15:13.943Z,-0.25
2023-01-20T07:19:08.020Z,-0.17
2023-01-20T07:23:13.611Z,-0.15
2023-01-20T07:27:20.032Z,-0.11
2023-01-20T07:31:23.839Z,-0.06
2023-01-20T07:35:10.301Z,0.03
2023-01-20T07:39:14.008Z,0.06
2023-01-20T07:43:00.539Z,0.03
2023-01-20T07:47:05.134Z,0.01
2023-01-20T07:51:02.752Z,0.08
2023-01-20T07:54:49.221Z,0.10
2023-01-20T07:58:50.573Z,0.05
2023-01-20T08:02:50.432Z,0.05
2023-01-20T08:06:40.005Z,0.17
2023-01-20T08:10:43.783Z,0.27
2023-01-20T08:14:19.709Z,0.31
2023-01-20T08:18:10.444Z,0.28
2023-01-20T08:22:03.899Z,0.22
2023-01-20T08:25:22.222Z,0.26
2023-01-20T08:28:45.321Z,0.33
2023-01-20T08:32:24.843Z,0.39
2023-01-20T08:36:04.753Z,0.39
2023-01-20T08:39:58.288Z,0.45
2023-01-20T08:43:47.354Z,0.50
2023-01-20T08:47:48.444Z,0.58
2023-01-20T08:51:20.673Z,0.60
2023-01-20T08:55:16.167Z,0.57
2023-01-20T08:59:13.740Z,0.62
2023-01-20T09:03:10.942Z,0.66
2023-01-20T09:06:46.314Z,0.72
2023-01-20T09:10:41.399Z,0.76
2023-01-20T09:14:06.365Z,0.73
2023-01-20T09:17:22.969Z,0.74
2023-01-20T09:20:43.357Z,0.74
2023-01-20T09:24:39.928Z,0.78
2023-01-20T09:28:41.330Z,0.80
2023-01-20T09:32:19.116Z,0.89
2023-01-20T09:36:24.536Z,0.99
2023-01-20T09:40:10.563Z,1.07
2023-01-20T09:44:38.588Z,1.15
2023-01-20T09:48:24.215Z,1.18
2023-01-20T09:52:16.278Z,1.15
2023-01-20T09:56:04.841Z,1.17
2023-01-20T09:59:41.697Z,1.29
2023-01-20T10:03:38.138Z,1.34
2023-01-20T10:07:57.003Z,1.32
2023-01-20T10:12:00.620Z,1.34
2023-01-20T10:15:41.876Z,1.28
2023-01-20T10:19:55.839Z,1.22
2023-01-20T10:24:07.746Z,1.20
2023-01-20T10:27:46.221Z,1.25
2023-01-20T10:31:33.705Z,1.39
2023-01-20T10:35:21.718Z,1.45
2023-01-20T10:39:40.280Z,1.49
2023-01-20T10:43:39.544Z,1.40
2023-01-20T10:47:53.687Z,1.32
2023-01-20T10:51:55.901Z,1.14
2023-01-20T10:55:58.684Z,1.16
2023-01-20T10:59:41.748Z,1.22
2023-01-20T11:03:16.454Z,1.26
2023-01-20T11:07:09.970Z,1.30
2023-01-20T11:11:04.377Z,1.31
2023-01-20T11:14:42.463Z,1.40
2023-01-20T11:18:41.060Z,1.40
2023-01-20T11:22:22.697Z,1.43
2023-01-20T11:26:18.967Z,1.46
2023-01-20T11:30:10.428Z,1.38
2023-01-20T11:34:35.750Z,1.30
2023-01-20T11:38:31.978Z,1.28
2023-01-20T11:42:21.152Z,1.32
2023-01-20T11:46:23.816Z,1.33
2023-01-20T11:49:58.301Z,1.31
2023-01-20T11:54:05.478Z,1.28
2023-01-20T11:57:49.864Z,1.25
2023-01-20T12:01:53.910Z,1.24
2023-01-20T12:05:38.736Z,1.27
2023-01-20T12:09:45.087Z,1.31
2023-01-20T12:13:54.602Z,1.22
2023-01-20T12:18:09.635Z,1.11
2023-01-20T12:21:49.966Z,1.00
2023-01-20T12:25:47.347Z,0.98
2023-01-20T12:29:50.197Z,0.95
2023-01-20T12:33:53.631Z,0.99
2023-01-20T12:38:12.864Z,1.05
2023-01-20T12:42:15.733Z,1.08
2023-01-20T12:46:06.545Z,1.12
2023-01-20T12:50:22.039Z,1.15
2023-01-20T12:54:47.346Z,1.08
2023-01-20T12:58:43.838Z,1.04
2023-01-20T13:02:38.691Z,0.97
2023-01-20T13:06:34.816Z,0.85
2023-01-20T13:10:26.808Z,0.72
2023-01-20T13:14:25.287Z,0.66
2023-01-20T13:18:28.216Z,0.71
2023-01-20T13:22:08.146Z,0.73
2023-01-20T13:25:19.050Z,0.74
2023-01-20T13:28:40.444Z,0.74
2023-01-20T13:31:45.655Z,0.71
2023-01-20T13:35:23.371Z,0.68
2023-01-20T13:38:32.149Z,0.66
2023-01-20T13:42:45.501Z,0.66
2023-01-20T13:46:00.188Z,0.62
2023-01-20T13:49:22.322Z,0.57
2023-01-20T13:53:18.937Z,0.50
2023-01-20T13:56:33.651Z,0.48
2023-01-20T13:59:59.424Z,0.43
2023-01-20T14:03:54.334Z,0.40
2023-01-20T14:07:11.867Z,0.37
2023-01-20T14:10:18.799Z,0.33
2023-01-20T14:13:24.239Z,0.33
2023-01-20T14:17:06.541Z,0.30
2023-01-20T14:21:03.910Z,0.29
2023-01-20T14:24:57.556Z,0.32
2023-01-20T14:28:54.121Z,0.36
2023-01-20T14:31:57.813Z,0.40
2023-01-20T14:35:13.659Z,0.38
2023-01-20T14:38:21.136Z,0.37
2023-01-20T14:41:33.877Z,0.47
2023-01-20T14:44:38.817Z,0.48
2023-01-20T14:47:49.093Z,0.43
2023-01-20T14:51:13.090Z,0.39
2023-01-20T14:55:18.747Z,0.38
2023-01-20T14:58:46.797Z,0.39
2023-01-20T15:02:07.227Z,0.45
2023-01-20T15:05:53.356Z,0.51
2023-01-20T15:09:19.250Z,0.52
2023-01-20T15:12:35.724Z,0.48
2023-01-20T15:16:48.073Z,0.51
2023-01-20T15:20:14.203Z,0.51
2023-01-20T15:23:52.462Z,0.54
2023-01-20T15:27:55.976Z,0.54
2023-01-20T15:31:13.007Z,0.49
2023-01-20T15:35:06.716Z,0.45
2023-01-20T15:38:24.502Z,0.43
2023-01-20T15:42:16.502Z,0.35
2023-01-20T15:45:59.976Z,0.30
2023-01-20T15:49:34.614Z,0.26
2023-01-20T15:53:12.481Z,0.30
2023-01-20T15:57:03.123Z,0.38
2023-01-20T16:00:40.637Z,0.41
2023-01-20T16:04:12.347Z,0.41
2023-01-20T16:07:22.271Z,0.43
2023-01-20T16:10:38.179Z,0.41
2023-01-20T16:13:44.202Z,0.41
2023-01-20T16:17:11.168Z,0.39
2023-01-20T16:21:14.153Z,0.25
2023-01-20T16:24:57.152Z,0.29
2023-01-20T16:28:28.512Z,0.30
2023-01-20T16:31:36.976Z,0.33
2023-01-20T16:34:44.393Z,0.37
2023-01-20T16:38:02.144Z,0.37
2023-01-20T16:41:36.707Z,0.40
2023-01-20T16:45:10.080Z,0.44
2023-01-20T16:48:29.471Z,0.48
2023-01-20T16:51:32.930Z,0.48
2023-01-20T16:55:04.047Z,0.41
2023-01-20T16:58:33.194Z,0.43
2023-01-20T17:01:39.125Z,0.47
2023-01-20T17:04:42.132Z,0.47
2023-01-20T17:08:15.777Z,0.49
2023-01-20T17:11:54.565Z,0.51
2023-01-20T17:14:57.471Z,0.51
2023-01-20T17:18:54.709Z,0.50
2023-01-20T17:22:00.811Z,0.47
2023-01-20T17:25:11.279Z,0.44
2023-01-20T17:28:14.601Z,0.41
2023-01-20T17:31:36.476Z,0.42
2023-01-20T17:34:39.625Z,0.37
2023-01-20T17:37:42.846Z,0.37
2023-01-20T17:41:46.596Z,0.38
2023-01-20T17:44:51.791Z,0.33
2023-01-20T17:48:26.288Z,0.34
2023-01-20T17:51:42.799Z,0.32
2023-01-20T17:54:46.738Z,0.36
2023-01-20T17:58:10.821Z,0.35
2023-01-20T18:01:21.258Z,0.35
2023-01-20T18:04:44.844Z,0.32
2023-01-20T18:07:59.449Z,0.25
2023-01-20T18:11:45.657Z,0.15
2023-01-20T18:15:27.841Z,-0.08
2023-01-20T18:19:17.046Z,-0.10
2023-01-20T18:23:03.096Z,-0.14
2023-01-20T18:26:20.639Z,-0.18
2023-01-20T18:29:35.400Z,-0.14
2023-01-20T18:33:21.352Z,-0.12
2023-01-20T18:36:52.601Z,-0.10
2023-01-20T18:40:21.705Z,-0.03
2023-01-20T18:43:38.597Z,0.00
2023-01-20T18:47:42.165Z,0.02
2023-01-20T18:51:15.494Z,0.06
2023-01-20T18:55:28.388Z,0.09
2023-01-20T18:58:47.110Z,0.09
2023-01-20T19:02:03.606Z,0.11
2023-01-20T19:05:27.095Z,0.12
2023-01-20T19:08:32.940Z,0.15
2023-01-20T19:12:10.910Z,0.15
2023-01-20T19:15:52.936Z,0.19
2023-01-20T19:19:17.629Z,0.18
2023-01-20T19:22:33.564Z,0.17
2023-01-20T19:25:59.076Z,0.12
2023-01-20T19:29:55.792Z,0.09
2023-01-20T19:33:39.541Z,0.07
2023-01-20T19:36:50.109Z,0.05
2023-01-20T19:39:57.292Z,0.02
2023-01-20T19:43:02.901Z,-0.02
2023-01-20T19:47:05.356Z,-0.04
2023-01-20T19:50:39.719Z,-0.06
2023-01-20T19:54:09.376Z,-0.13
2023-01-20T19:57:55.072Z,-0.10
2023-01-20T20:01:41.170Z,-0.02
2023-01-20T20:05:09.772Z,0.05
2023-01-20T20:08:37.016Z,0.05
2023-01-20T20:12:40.702Z,-0.02
2023-01-20T20:16:44.671Z,-0.06
2023-01-20T20:20:11.075Z,-0.12
2023-01-20T20:23:20.729Z,-0.17
2023-01-20T20:26:50.361Z,-0.17
2023-01-20T20:30:09.401Z,-0.19
2023-01-20T20:33:35.908Z,-0.18
2023-01-20T20:36:47.413Z,-0.16
2023-01-20T20:40:11.082Z,-0.10
2023-01-20T20:43:28.110Z,-0.12
2023-01-20T20:47:03.991Z,-0.10
2023-01-20T20:50:27.510Z,-0.07
2023-01-20T20:54:06.094Z,-0.02
2023-01-20T20:57:40.920Z,-0.00
2023-01-20T21:01:19.611Z,-0.01
2023-01-20T21:05:23.445Z,-0.03
2023-01-20T21:09:07.310Z,0.04
2023-01-20T21:12:44.415Z,0.06
2023-01-20T21:16:03.596Z,0.01
2023-01-20T21:19:22.148Z,-0.04
2023-01-20T21:22:57.373Z,-0.18
2023-01-20T21:26:22.856Z,-0.21
2023-01-20T21:30:19.475Z,-0.22
2023-01-20T21:33:58.575Z,-0.27
2023-01-20T21:37:42.472Z,-0.35
2023-01-20T21:41:17.951Z,-0.41
2023-01-20T21:44:32.528Z,-0.47
2023-01-20T21:47:51.294Z,-0.43
2023-01-20T21:51:39.510Z,-0.56
2023-01-20T21:55:27.708Z,-0.64
2023-01-20T21:58:54.349Z,-0.64
2023-01-20T22:02:38.337Z,-0.55
2023-01-20T22:06:08.026Z,-0.47
2023-01-20T22:09:20.805Z,-0.44
2023-01-20T22:13:24.581Z,-0.40
2023-01-20T22:16:48.621Z,-0.47
2023-01-20T22:20:32.455Z,-0.41
2023-01-20T22:24:26.140Z,-0.35
2023-01-20T22:28:09.910Z,-0.35
2023-01-20T22:31:49.506Z,-0.31
2023-01-20T22:35:33.353Z,-0.24
2023-01-20T22:39:37.144Z,-0.17
2023-01-20T22:43:31.993Z,-0.15
2023-01-20T22:46:59.025Z,-0.14
2023-01-20T22:50:36.435Z,-0.13
2023-01-20T22:54:40.183Z,-0.10
2023-01-20T22:58:43.933Z,-0.06
2023-01-20T23:02:04.827Z,-0.05
2023-01-20T23:06:08.800Z,-0.04
2023-01-20T23:10:11.127Z,-0.06
2023-01-20T23:14:07.490Z,-0.08
2023-01-20T23:17:35.876Z,-0.08
2023-01-20T23:21:02.401Z,-0.04
2023-01-20T23:24:06.123Z,-0.01
2023-01-20T23:27:50.662Z,0.01
2023-01-20T23:31:45.312Z,-0.06
2023-01-20T23:35:21.912Z,-0.13
2023-01-20T23:39:25.637Z,-0.13
2023-01-20T23:43:02.350Z,-0.10
2023-01-20T23:51:08.198Z,-0.08
2023-01-20T23:55:12.110Z,-0.13
2023-01-20T23:59:15.908Z,-0.23
